createdAt,value
2023-07-26T00:02:29.041Z,1.00
2023-07-26T00:05:17.245Z,1.37
2023-07-26T00:08:05.737Z,2.03
2023-07-26T00:10:53.894Z,2.70
2023-07-26T00:13:43.463Z,2.13
2023-07-26T00:16:32.659Z,3.00
2023-07-26T00:19:21.432Z,3.30
2023-07-26T00:22:09.579Z,2.13
2023-07-26T00:25:00.730Z,3.73
2023-07-26T00:27:48.777Z,1.57
2023-07-26T00:30:38.308Z,2.10
2023-07-26T00:33:26.657Z,1.07
2023-07-26T00:36:15.146Z,1.37
2023-07-26T00:39:04.525Z,1.37
2023-07-26T00:41:52.940Z,1.10
2023-07-26T00:44:40.925Z,2.17
2023-07-26T00:47:30.798Z,2.13
2023-07-26T00:50:19.184Z,1.87
2023-07-26T00:53:07.648Z,2.37
2023-07-26T00:55:57.658Z,2.60
2023-07-26T00:58:45.981Z,2.13
2023-07-26T01:01:34.468Z,1.73
2023-07-26T01:04:24.316Z,1.40
2023-07-26T01:07:22.394Z,2.87
2023-07-26T01:10:17.097Z,2.10
2023-07-26T01:13:21.527Z,1.30
2023-07-26T01:16:10.384Z,1.20
2023-07-26T01:18:58.606Z,2.30
2023-07-26T01:21:48.211Z,1.30
2023-07-26T01:24:36.359Z,2.07
2023-07-26T01:27:24.566Z,1.67
2023-07-26T01:30:13.550Z,1.07
2023-07-26T01:33:04.773Z,1.20
2023-07-26T01:35:53.813Z,2.33
2023-07-26T01:38:44.911Z,1.30
2023-07-26T01:41:33.757Z,1.17
2023-07-26T01:44:22.232Z,2.47
2023-07-26T01:47:10.585Z,2.63
2023-07-26T01:49:58.829Z,1.40
2023-07-26T01:52:47.254Z,3.20
2023-07-26T01:55:36.877Z,2.37
2023-07-26T01:58:25.194Z,2.35
2023-07-26T02:01:13.543Z,1.77
2023-07-26T02:04:01.924Z,1.70
2023-07-26T02:06:50.168Z,2.87
2023-07-26T02:09:38.745Z,1.70
2023-07-26T02:12:28.276Z,2.27
2023-07-26T02:15:17.087Z,4.17
2023-07-26T02:18:05.548Z,1.53
2023-07-26T02:20:54.139Z,2.03
2023-07-26T02:23:42.378Z,3.57
2023-07-26T02:26:30.630Z,1.57
2023-07-26T02:29:20.177Z,2.80
2023-07-26T02:32:09.156Z,1.93
2023-07-26T02:34:57.530Z,1.57
2023-07-26T02:37:45.657Z,2.73
2023-07-26T02:40:33.793Z,1.47
2023-07-26T02:43:34.750Z,4.33
2023-07-26T02:46:28.659Z,2.73
2023-07-26T02:49:17.156Z,1.80
2023-07-26T02:52:06.027Z,2.07
2023-07-26T02:54:54.225Z,2.20
2023-07-26T02:57:42.455Z,2.03
2023-07-26T03:00:30.650Z,3.27
2023-07-26T03:03:20.202Z,2.43
2023-07-26T03:06:08.473Z,2.30
2023-07-26T03:08:56.511Z,2.23
2023-07-26T03:11:44.651Z,2.77
2023-07-26T03:14:33.101Z,3.07
2023-07-26T03:17:23.182Z,3.83
2023-07-26T03:20:13.982Z,2.90
2023-07-26T03:23:02.045Z,2.40
2023-07-26T03:25:50.282Z,3.10
2023-07-26T03:28:38.531Z,2.93
2023-07-26T03:31:26.682Z,1.50
2023-07-26T03:34:14.823Z,3.30
2023-07-26T03:37:04.788Z,3.30
2023-07-26T03:39:52.961Z,1.90
2023-07-26T03:42:41.345Z,2.40
2023-07-26T03:45:29.704Z,2.73
2023-07-26T03:48:17.880Z,4.77
2023-07-26T03:51:06.014Z,2.30
2023-07-26T03:53:55.466Z,2.30
2023-07-26T03:56:43.592Z,2.33
2023-07-26T03:59:31.688Z,2.80
2023-07-26T04:02:19.966Z,3.17
2023-07-26T04:05:08.568Z,1.73
2023-07-26T04:07:56.733Z,2.27
2023-07-26T04:10:46.157Z,1.90
2023-07-26T04:13:34.562Z,3.93
2023-07-26T04:16:24.175Z,4.53
2023-07-26T04:19:12.338Z,3.00
2023-07-26T04:22:00.587Z,2.20
2023-07-26T04:24:48.756Z,2.50
2023-07-26T04:27:38.238Z,2.30
2023-07-26T04:30:26.869Z,2.50
2023-07-26T04:33:14.979Z,3.20
2023-07-26T04:36:03.172Z,4.30
2023-07-26T04:38:51.316Z,3.40
2023-07-26T04:41:39.389Z,3.83
2023-07-26T04:44:28.827Z,4.43
2023-07-26T04:47:19.340Z,2.10
2023-07-26T04:50:08.020Z,3.70
2023-07-26T04:52:56.205Z,2.83
2023-07-26T04:55:45.579Z,3.33
2023-07-26T04:58:33.644Z,2.47
2023-07-26T05:01:24.875Z,2.73
2023-07-26T05:04:13.046Z,4.77
2023-07-26T05:07:01.251Z,3.17
2023-07-26T05:09:49.258Z,3.80
2023-07-26T05:12:37.419Z,3.17
2023-07-26T05:15:25.983Z,3.53
2023-07-26T05:18:15.854Z,3.57
2023-07-26T05:21:03.973Z,2.57
2023-07-26T05:23:52.120Z,4.20
2023-07-26T05:26:40.214Z,5.00
2023-07-26T05:29:28.246Z,3.80
2023-07-26T05:32:16.346Z,3.23
2023-07-26T05:35:06.267Z,3.23
2023-07-26T05:37:54.767Z,3.53
2023-07-26T05:40:42.837Z,4.10
2023-07-26T05:43:30.900Z,3.37
2023-07-26T05:46:18.999Z,2.93
2023-07-26T05:49:07.383Z,1.83
2023-07-26T05:51:56.740Z,2.60
2023-07-26T05:54:44.790Z,2.83
2023-07-26T05:57:32.925Z,2.30
2023-07-26T06:00:22.391Z,4.23
2023-07-26T06:03:10.617Z,4.93
2023-07-26T06:05:58.963Z,3.63
2023-07-26T06:08:48.484Z,2.67
2023-07-26T06:11:51.128Z,3.07
2023-07-26T06:14:44.493Z,3.43
2023-07-26T06:17:32.791Z,4.03
2023-07-26T06:20:20.829Z,4.57
2023-07-26T06:23:08.931Z,3.70
2023-07-26T06:25:58.455Z,4.17
2023-07-26T06:28:46.640Z,3.17
2023-07-26T06:31:35.070Z,5.03
2023-07-26T06:34:23.585Z,3.10
2023-07-26T06:37:11.670Z,3.47
2023-07-26T06:39:59.720Z,5.90
2023-07-26T06:42:49.227Z,4.30
2023-07-26T06:45:37.234Z,4.77
2023-07-26T06:48:25.298Z,6.60
2023-07-26T06:51:16.090Z,3.60
2023-07-26T06:54:04.232Z,6.23
2023-07-26T06:56:52.266Z,3.90
2023-07-26T06:59:41.733Z,5.07
2023-07-26T07:02:29.949Z,3.37
2023-07-26T07:05:18.042Z,5.43
2023-07-26T07:08:06.442Z,4.00
2023-07-26T07:10:54.422Z,5.10
2023-07-26T07:13:42.472Z,3.33
2023-07-26T07:16:32.127Z,3.97
2023-07-26T07:19:20.190Z,4.40
2023-07-26T07:22:08.224Z,3.77
2023-07-26T07:24:57.485Z,4.60
2023-07-26T07:27:45.589Z,6.00
2023-07-26T07:30:34.252Z,3.93
2023-07-26T07:33:23.796Z,5.60
2023-07-26T07:36:16.457Z,3.70
2023-07-26T07:39:09.049Z,5.27
2023-07-26T07:41:57.103Z,3.97
2023-07-26T07:44:45.155Z,5.00
2023-07-26T07:47:33.187Z,4.00
2023-07-26T07:50:22.739Z,6.03
2023-07-26T07:53:11.416Z,4.53
2023-07-26T07:55:59.433Z,4.60
2023-07-26T07:58:47.600Z,4.83
2023-07-26T08:01:36.458Z,8.47
2023-07-26T08:04:24.808Z,5.33
2023-07-26T08:07:14.253Z,4.70
2023-07-26T08:10:02.412Z,6.20
2023-07-26T08:12:50.440Z,5.80
2023-07-26T08:15:40.020Z,4.90
2023-07-26T08:18:28.272Z,7.50
2023-07-26T08:21:16.290Z,5.80
2023-07-26T08:24:06.364Z,5.40
2023-07-26T08:26:54.955Z,5.53
2023-07-26T08:29:43.336Z,6.03
2023-07-26T08:32:31.530Z,5.10
2023-07-26T08:35:19.576Z,4.40
2023-07-26T08:38:07.755Z,4.43
2023-07-26T08:40:57.692Z,6.63
2023-07-26T08:43:50.099Z,4.33
2023-07-26T08:46:41.899Z,3.77
2023-07-26T08:49:31.051Z,3.60
2023-07-26T08:52:19.584Z,4.00
2023-07-26T08:55:09.626Z,5.43
2023-07-26T08:58:00.699Z,3.07
2023-07-26T09:00:49.174Z,3.27
2023-07-26T09:03:38.296Z,2.77
2023-07-26T09:06:26.476Z,2.63
2023-07-26T09:09:14.617Z,3.67
2023-07-26T09:12:03.937Z,3.10
2023-07-26T09:14:55.278Z,3.30
2023-07-26T09:17:45.461Z,3.23
2023-07-26T09:20:34.760Z,3.57
2023-07-26T09:23:22.770Z,2.47
2023-07-26T09:26:11.237Z,3.10
2023-07-26T09:28:59.296Z,2.23
2023-07-26T09:31:48.812Z,2.23
2023-07-26T09:34:37.458Z,2.40
2023-07-26T09:37:25.882Z,3.63
2023-07-26T09:40:21.484Z,3.87
2023-07-26T09:43:12.702Z,2.60
2023-07-26T09:46:05.449Z,2.85
2023-07-26T09:49:00.475Z,3.60
2023-07-26T09:54:41.112Z,3.47
2023-07-26T09:57:31.423Z,2.77
2023-07-26T10:00:20.877Z,3.47
2023-07-26T10:03:10.322Z,3.03
2023-07-26T10:06:00.361Z,3.10
2023-07-26T10:08:48.781Z,4.40
2023-07-26T10:11:37.796Z,4.57
2023-07-26T10:14:27.970Z,3.57
2023-07-26T10:17:17.420Z,2.40
2023-07-26T10:20:06.730Z,2.03
2023-07-26T10:23:03.456Z,2.10
2023-07-26T10:25:52.397Z,2.17
2023-07-26T10:28:41.250Z,2.93
2023-07-26T10:31:29.963Z,2.93
2023-07-26T10:34:22.696Z,3.33
2023-07-26T10:37:19.360Z,2.70
2023-07-26T10:40:32.281Z,3.27
2023-07-26T10:43:40.482Z,2.47
2023-07-26T10:46:29.301Z,3.43
2023-07-26T10:49:19.497Z,2.30
2023-07-26T10:52:08.662Z,3.43
2023-07-26T10:54:57.011Z,2.90
2023-07-26T10:57:51.810Z,2.97
2023-07-26T11:00:40.266Z,2.33
2023-07-26T11:03:28.414Z,3.40
2023-07-26T11:06:20.538Z,2.73
2023-07-26T11:09:09.081Z,2.63
2023-07-26T11:11:59.582Z,3.83
2023-07-26T11:15:48.955Z,2.80
2023-07-26T11:17:59.656Z,2.80
2023-07-26T11:20:49.219Z,2.40
2023-07-26T11:23:37.367Z,2.87
2023-07-26T11:26:27.136Z,2.70
2023-07-26T11:29:15.891Z,3.43
2023-07-26T11:32:06.242Z,2.47
2023-07-26T11:34:56.057Z,3.27
2023-07-26T11:37:55.089Z,2.77
2023-07-26T11:40:45.238Z,2.27
2023-07-26T11:43:34.027Z,3.37
2023-07-26T11:46:28.523Z,2.30
2023-07-26T11:49:22.493Z,1.77
2023-07-26T11:52:15.735Z,2.05
2023-07-26T11:55:06.460Z,1.87
2023-07-26T11:57:54.608Z,1.50
2023-07-26T12:00:47.448Z,1.70
2023-07-26T12:03:38.359Z,2.23
2023-07-26T12:06:33.342Z,2.03
2023-07-26T12:09:22.610Z,2.43
2023-07-26T12:12:10.846Z,2.70
2023-07-26T12:14:59.120Z,3.30
2023-07-26T12:18:01.936Z,2.43
2023-07-26T12:21:02.932Z,2.00
2023-07-26T12:23:57.575Z,3.50
2023-07-26T12:26:49.116Z,3.23
2023-07-26T12:29:39.264Z,3.97
2023-07-26T12:32:27.905Z,3.70
2023-07-26T12:35:21.565Z,5.37
2023-07-26T12:38:11.854Z,4.03
2023-07-26T12:41:01.532Z,4.23
2023-07-26T12:43:54.390Z,4.37
2023-07-26T12:49:35.644Z,4.17
2023-07-26T12:52:24.034Z,4.50
2023-07-26T12:55:12.377Z,4.07
2023-07-26T12:58:02.162Z,4.13
2023-07-26T13:00:50.510Z,4.03
2023-07-26T13:03:38.832Z,4.17
2023-07-26T13:06:27.094Z,4.10
2023-07-26T13:09:15.460Z,4.30
2023-07-26T13:12:04.648Z,3.87
2023-07-26T13:14:54.272Z,3.60
2023-07-26T13:17:42.680Z,3.77
2023-07-26T13:20:31.098Z,7.20
2023-07-26T13:23:19.546Z,3.97
2023-07-26T13:26:08.309Z,2.50
2023-07-26T13:28:56.570Z,2.30
2023-07-26T13:31:46.133Z,2.70
2023-07-26T13:34:35.075Z,2.53
2023-07-26T13:37:23.555Z,2.70
2023-07-26T13:40:12.822Z,2.40
2023-07-26T13:43:01.793Z,3.07
2023-07-26T13:45:51.168Z,2.27
2023-07-26T13:48:42.369Z,2.40
2023-07-26T13:51:30.605Z,2.73
2023-07-26T13:54:18.840Z,3.97
2023-07-26T13:57:12.413Z,2.20
2023-07-26T14:00:02.009Z,3.03
2023-07-26T14:02:50.346Z,2.40
2023-07-26T14:05:40.119Z,2.73
2023-07-26T14:08:28.264Z,2.33
2023-07-26T14:11:16.886Z,3.57
2023-07-26T14:14:05.039Z,2.80
2023-07-26T14:16:53.145Z,3.93
2023-07-26T14:19:41.340Z,3.23
2023-07-26T14:22:30.872Z,2.92
2023-07-26T14:25:19.167Z,2.50
2023-07-26T14:28:07.299Z,3.47
2023-07-26T14:30:55.897Z,2.50
2023-07-26T14:33:44.816Z,2.93
2023-07-26T14:36:33.414Z,3.10
2023-07-26T14:39:23.151Z,2.77
2023-07-26T14:42:11.612Z,2.50
2023-07-26T14:44:59.969Z,2.40
2023-07-26T14:47:48.230Z,2.53
2023-07-26T14:50:36.545Z,2.23
2023-07-26T14:53:25.787Z,2.50
2023-07-26T14:56:15.392Z,2.77
2023-07-26T14:59:04.149Z,3.03
2023-07-26T15:01:52.278Z,2.90
2023-07-26T15:04:40.624Z,3.40
2023-07-26T15:07:33.221Z,2.50
2023-07-26T15:10:22.276Z,2.90
2023-07-26T15:13:12.166Z,2.60
2023-07-26T15:16:00.399Z,3.70
2023-07-26T15:18:48.611Z,2.80
2023-07-26T15:21:36.803Z,2.93
2023-07-26T15:24:25.363Z,3.47
2023-07-26T15:27:13.719Z,3.13
2023-07-26T15:30:03.559Z,5.87
2023-07-26T15:32:51.850Z,2.90
2023-07-26T15:35:39.966Z,3.40
2023-07-26T15:38:28.069Z,4.20
2023-07-26T15:41:16.832Z,3.63
2023-07-26T15:49:55.986Z,3.10
2023-07-26T15:52:45.176Z,3.20
2023-07-26T15:55:33.725Z,3.87
2023-07-26T15:58:27.739Z,2.80
2023-07-26T16:01:18.033Z,3.50
2023-07-26T16:04:26.574Z,3.23
2023-07-26T16:07:15.695Z,3.50
2023-07-26T16:10:04.172Z,3.50
2023-07-26T16:12:52.352Z,3.07
2023-07-26T16:16:23.641Z,2.87
2023-07-26T16:24:32.872Z,3.10
2023-07-26T16:27:21.724Z,3.13
2023-07-26T16:30:10.788Z,3.22
2023-07-26T16:32:59.023Z,3.13
2023-07-26T16:35:48.411Z,3.37
2023-07-26T16:38:37.986Z,3.57
2023-07-26T16:41:26.228Z,3.17
2023-07-26T16:44:14.433Z,5.17
2023-07-26T16:47:09.054Z,2.97
2023-07-26T16:49:58.046Z,3.10
2023-07-26T16:52:46.377Z,3.83
2023-07-26T16:55:36.470Z,3.57
2023-07-26T16:58:24.773Z,3.30
2023-07-26T17:01:13.314Z,3.67
2023-07-26T17:04:01.407Z,3.20
2023-07-26T17:06:50.513Z,3.10
2023-07-26T17:09:38.526Z,3.10
2023-07-26T17:12:28.635Z,3.47
2023-07-26T17:15:16.985Z,3.27
2023-07-26T17:18:05.061Z,3.80
2023-07-26T17:20:53.289Z,3.60
2023-07-26T17:23:41.898Z,3.72
2023-07-26T17:26:31.615Z,3.40
2023-07-26T17:29:21.293Z,3.77
2023-07-26T17:32:09.983Z,4.40
2023-07-26T17:34:57.888Z,3.85
2023-07-26T17:37:46.861Z,3.20
2023-07-26T17:40:36.617Z,3.10
2023-07-26T17:43:24.617Z,3.00
2023-07-26T17:46:14.069Z,3.57
2023-07-26T17:49:02.013Z,4.07
2023-07-26T17:51:49.964Z,3.80
2023-07-26T17:54:38.892Z,3.80
2023-07-26T17:57:32.002Z,3.47
2023-07-26T18:00:20.144Z,3.70
2023-07-26T18:03:09.526Z,4.60
2023-07-26T18:05:57.824Z,4.03
2023-07-26T18:08:45.854Z,4.20
2023-07-26T18:11:34.042Z,4.10
2023-07-26T18:14:23.417Z,3.97
2023-07-26T18:17:11.378Z,4.03
2023-07-26T18:20:01.382Z,4.27
2023-07-26T18:22:49.392Z,3.73
2023-07-26T18:25:37.484Z,3.67
2023-07-26T18:28:25.564Z,3.73
2023-07-26T18:31:14.773Z,4.70
2023-07-26T18:34:02.837Z,3.20
2023-07-26T18:36:52.348Z,3.58
2023-07-26T18:39:40.341Z,3.00
2023-07-26T18:42:28.283Z,3.67
2023-07-26T18:45:18.236Z,3.85
2023-07-26T18:48:07.565Z,3.28
2023-07-26T18:50:55.664Z,3.47
2023-07-26T18:53:45.228Z,3.40
2023-07-26T18:56:33.667Z,4.10
2023-07-26T18:59:21.820Z,3.50
2023-07-26T19:02:10.030Z,3.37
2023-07-26T19:04:58.086Z,4.13
2023-07-26T19:07:46.338Z,3.43
2023-07-26T19:10:40.702Z,4.23
2023-07-26T19:13:28.861Z,3.40
2023-07-26T19:16:17.058Z,3.67
2023-07-26T19:19:05.054Z,4.83
2023-07-26T19:21:52.979Z,3.90
2023-07-26T19:24:40.924Z,3.47
2023-07-26T19:27:30.403Z,3.40
2023-07-26T19:30:18.626Z,5.93
2023-07-26T19:33:07.091Z,4.67
2023-07-26T19:35:55.640Z,6.23
2023-07-26T19:38:43.703Z,4.50
2023-07-26T19:41:31.749Z,5.40
2023-07-26T19:44:21.687Z,4.00
2023-07-26T19:47:09.847Z,4.73
2023-07-26T19:49:57.808Z,3.90
2023-07-26T19:52:46.248Z,4.80
2023-07-26T19:55:34.413Z,3.40
2023-07-26T19:58:22.370Z,3.40
2023-07-26T20:01:11.901Z,3.90
2023-07-26T20:04:00.267Z,4.83
2023-07-26T20:06:52.295Z,4.83
2023-07-26T20:09:40.573Z,3.50
2023-07-26T20:12:28.599Z,3.70
2023-07-26T20:15:17.765Z,3.93
2023-07-26T20:18:07.411Z,4.40
2023-07-26T20:20:55.352Z,3.93
2023-07-26T20:23:43.634Z,4.73
2023-07-26T20:26:33.444Z,4.53
2023-07-26T20:29:22.001Z,4.57
2023-07-26T20:32:10.917Z,4.20
2023-07-26T20:35:00.289Z,4.80
2023-07-26T20:37:48.276Z,3.97
2023-07-26T20:40:36.188Z,3.60
2023-07-26T20:43:24.320Z,3.90
2023-07-26T20:46:12.304Z,3.70
2023-07-26T20:49:00.293Z,5.93
2023-07-26T20:51:49.795Z,4.40
2023-07-26T20:54:37.987Z,4.27
2023-07-26T20:57:26.015Z,5.53
2023-07-26T21:00:15.262Z,3.80
2023-07-26T21:03:03.293Z,3.83
2023-07-26T21:05:51.307Z,4.93
2023-07-26T21:08:40.570Z,3.93
2023-07-26T21:11:28.824Z,3.80
2023-07-26T21:14:16.771Z,4.27
2023-07-26T21:17:05.138Z,4.13
2023-07-26T21:19:53.209Z,4.80
2023-07-26T21:22:41.143Z,3.73
2023-07-26T21:25:30.404Z,4.37
2023-07-26T21:28:18.842Z,7.33
2023-07-26T21:31:06.769Z,5.10
2023-07-26T21:33:54.756Z,3.87
2023-07-26T21:36:42.821Z,3.77
2023-07-26T21:39:30.787Z,4.77
2023-07-26T21:42:20.119Z,3.87
2023-07-26T21:45:08.812Z,5.17
2023-07-26T21:47:57.505Z,4.40
2023-07-26T21:50:46.007Z,4.60
2023-07-26T21:53:34.303Z,4.33
2023-07-26T21:56:22.235Z,4.33
2023-07-26T21:59:11.483Z,3.63
2023-07-26T22:01:59.523Z,4.77
2023-07-26T22:04:47.809Z,4.30
2023-07-26T22:07:35.808Z,4.97
2023-07-26T22:10:23.771Z,4.40
2023-07-26T22:13:11.831Z,5.30
2023-07-26T22:16:01.110Z,4.47
2023-07-26T22:18:49.081Z,5.70
2023-07-26T22:21:37.134Z,4.73
2023-07-26T22:24:25.129Z,4.80
2023-07-26T22:27:13.076Z,5.67
2023-07-26T22:30:01.049Z,4.80
2023-07-26T22:32:50.466Z,7.93
2023-07-26T22:35:38.437Z,4.47
2023-07-26T22:38:26.366Z,4.43
2023-07-26T22:41:14.353Z,5.27
2023-07-26T22:44:02.291Z,4.63
2023-07-26T22:46:50.240Z,5.43
2023-07-26T22:49:39.531Z,5.72
2023-07-26T22:52:27.450Z,5.13
2023-07-26T22:55:15.799Z,5.57
2023-07-26T22:58:03.811Z,4.20
2023-07-26T23:00:51.814Z,5.60
2023-07-26T23:03:39.899Z,5.17
2023-07-26T23:06:29.392Z,4.40
2023-07-26T23:09:17.385Z,5.17
2023-07-26T23:12:06.675Z,4.57
2023-07-26T23:14:54.612Z,3.80
2023-07-26T23:17:42.635Z,3.30
2023-07-26T23:20:30.612Z,3.77
2023-07-26T23:23:20.645Z,4.17
2023-07-26T23:26:08.622Z,3.93
2023-07-26T23:28:56.559Z,3.73
2023-07-26T23:31:44.595Z,4.20
2023-07-26T23:34:32.598Z,5.80
2023-07-26T23:37:20.525Z,4.70
2023-07-26T23:40:10.648Z,6.67
2023-07-26T23:42:58.584Z,3.50
2023-07-26T23:45:46.681Z,4.27
2023-07-26T23:48:34.594Z,4.13
2023-07-26T23:51:23.598Z,4.57
2023-07-26T23:54:11.547Z,4.53
2023-07-26T23:57:00.911Z,5.87
2023-07-26T23:59:48.821Z,5.17
